sensor_id;sensor_type;location;lat;lon;timestamp;temperature;humidity
22974;DHT22;11653;50.848;4.584;2023-07-28T00:02:16;19.30;99.90
22974;DHT22;11653;50.848;4.584;2023-07-28T00:04:42;19.30;99.90
22974;DHT22;11653;50.848;4.584;2023-07-28T00:07:07;19.30;99.90
22974;DHT22;11653;50.848;4.584;2023-07-28T00:09:33;19.30;99.90
22974;DHT22;11653;50.848;4.584;2023-07-28T00:12:00;19.30;99.90
22974;DHT22;11653;50.848;4.584;2023-07-28T00:14:26;19.40;99.90
22974;DHT22;11653;50.848;4.584;2023-07-28T00:16:53;19.40;99.90
22974;DHT22;11653;50.848;4.584;2023-07-28T00:19:20;19.40;99.90
22974;DHT22;11653;50.848;4.584;2023-07-28T00:21:48;19.50;99.90
22974;DHT22;11653;50.848;4.584;2023-07-28T00:24:13;19.40;99.90
22974;DHT22;11653;50.848;4.584;2023-07-28T00:26:39;19.40;99.90
22974;DHT22;11653;50.848;4.584;2023-07-28T00:29:06;19.40;99.90
22974;DHT22;11653;50.848;4.584;2023-07-28T00:31:33;19.40;99.90
22974;DHT22;11653;50.848;4.584;2023-07-28T00:33:59;19.30;99.90
22974;DHT22;11653;50.848;4.584;2023-07-28T00:36:25;19.30;99.90
22974;DHT22;11653;50.848;4.584;2023-07-28T00:38:50;19.30;99.90
22974;DHT22;11653;50.848;4.584;2023-07-28T00:41:16;19.30;99.90
22974;DHT22;11653;50.848;4.584;2023-07-28T00:43:42;19.20;99.90
22974;DHT22;11653;50.848;4.584;2023-07-28T00:46:09;19.20;99.90
22974;DHT22;11653;50.848;4.584;2023-07-28T00:48:35;19.30;99.90
22974;DHT22;11653;50.848;4.584;2023-07-28T00:51:01;19.20;99.90
22974;DHT22;11653;50.848;4.584;2023-07-28T00:53:26;19.20;99.90
22974;DHT22;11653;50.848;4.584;2023-07-28T00:55:52;19.30;99.90
22974;DHT22;11653;50.848;4.584;2023-07-28T00:58:18;19.30;99.90
22974;DHT22;11653;50.848;4.584;2023-07-28T01:00:44;19.20;99.90
22974;DHT22;11653;50.848;4.584;2023-07-28T01:03:10;19.20;99.90
22974;DHT22;11653;50.848;4.584;2023-07-28T01:08:49;19.20;99.90
22974;DHT22;11653;50.848;4.584;2023-07-28T01:11:15;19.20;99.90
22974;DHT22;11653;50.848;4.584;2023-07-28T01:13:40;19.10;99.90
22974;DHT22;11653;50.848;4.584;2023-07-28T01:16:07;19.00;99.90
22974;DHT22;11653;50.848;4.584;2023-07-28T01:18:33;19.00;99.90
22974;DHT22;11653;50.848;4.584;2023-07-28T01:21:01;19.10;99.90
22974;DHT22;11653;50.848;4.584;2023-07-28T01:23:41;19.10;99.90
22974;DHT22;11653;50.848;4.584;2023-07-28T01:26:09;19.10;99.90
22974;DHT22;11653;50.848;4.584;2023-07-28T01:28:37;19.10;99.90
22974;DHT22;11653;50.848;4.584;2023-07-28T01:31:04;19.10;99.90
22974;DHT22;11653;50.848;4.584;2023-07-28T01:33:30;19.10;99.90
22974;DHT22;11653;50.848;4.584;2023-07-28T01:35:55;19.10;99.90
22974;DHT22;11653;50.848;4.584;2023-07-28T01:38:21;19.10;99.90
22974;DHT22;11653;50.848;4.584;2023-07-28T01:40:47;19.10;99.90
22974;DHT22;11653;50.848;4.584;2023-07-28T01:43:13;19.10;99.90
22974;DHT22;11653;50.848;4.584;2023-07-28T01:45:39;19.10;99.90
22974;DHT22;11653;50.848;4.584;2023-07-28T01:48:05;19.10;99.90
22974;DHT22;11653;50.848;4.584;2023-07-28T01:50:31;19.10;99.90
22974;DHT22;11653;50.848;4.584;2023-07-28T01:52:57;19.20;99.90
22974;DHT22;11653;50.848;4.584;2023-07-28T01:55:22;19.20;99.90
22974;DHT22;11653;50.848;4.584;2023-07-28T01:57:56;19.20;99.90
22974;DHT22;11653;50.848;4.584;2023-07-28T02:00:22;19.20;99.90
22974;DHT22;11653;50.848;4.584;2023-07-28T02:02:48;19.20;99.90
22974;DHT22;11653;50.848;4.584;2023-07-28T02:05:14;19.10;99.90
22974;DHT22;11653;50.848;4.584;2023-07-28T02:07:40;19.10;99.90
22974;DHT22;11653;50.848;4.584;2023-07-28T02:10:06;19.20;99.90
22974;DHT22;11653;50.848;4.584;2023-07-28T02:12:32;19.20;99.90
22974;DHT22;11653;50.848;4.584;2023-07-28T02:14:57;19.20;99.90
22974;DHT22;11653;50.848;4.584;2023-07-28T02:17:23;19.20;99.90
22974;DHT22;11653;50.848;4.584;2023-07-28T02:19:49;19.20;99.90
22974;DHT22;11653;50.848;4.584;2023-07-28T02:22:14;19.20;99.90
22974;DHT22;11653;50.848;4.584;2023-07-28T02:24:40;19.10;99.90
22974;DHT22;11653;50.848;4.584;2023-07-28T02:27:06;19.10;99.90
22974;DHT22;11653;50.848;4.584;2023-07-28T02:29:31;19.10;99.90
22974;DHT22;11653;50.848;4.584;2023-07-28T02:31:57;19.20;99.90
22974;DHT22;11653;50.848;4.584;2023-07-28T02:34:23;19.20;99.90
22974;DHT22;11653;50.848;4.584;2023-07-28T02:36:48;19.20;99.90
22974;DHT22;11653;50.848;4.584;2023-07-28T02:39:14;19.20;99.90
22974;DHT22;11653;50.848;4.584;2023-07-28T02:41:39;19.20;99.90
22974;DHT22;11653;50.848;4.584;2023-07-28T02:44:05;19.20;99.90
22974;DHT22;11653;50.848;4.584;2023-07-28T02:46:31;19.20;99.90
22974;DHT22;11653;50.848;4.584;2023-07-28T02:48:56;19.20;99.90
22974;DHT22;11653;50.848;4.584;2023-07-28T02:51:22;19.20;99.90
22974;DHT22;11653;50.848;4.584;2023-07-28T02:53:47;19.20;99.90
22974;DHT22;11653;50.848;4.584;2023-07-28T02:56:13;19.30;99.90
22974;DHT22;11653;50.848;4.584;2023-07-28T02:58:39;19.30;99.90
22974;DHT22;11653;50.848;4.584;2023-07-28T03:01:04;19.30;99.90
22974;DHT22;11653;50.848;4.584;2023-07-28T03:03:30;19.30;99.90
22974;DHT22;11653;50.848;4.584;2023-07-28T03:05:56;19.30;99.90
22974;DHT22;11653;50.848;4.584;2023-07-28T03:08:21;19.20;99.90
22974;DHT22;11653;50.848;4.584;2023-07-28T03:10:47;19.30;99.90
22974;DHT22;11653;50.848;4.584;2023-07-28T03:13:13;19.20;99.90
22974;DHT22;11653;50.848;4.584;2023-07-28T03:15:39;19.30;99.90
22974;DHT22;11653;50.848;4.584;2023-07-28T03:18:04;19.20;99.90
22974;DHT22;11653;50.848;4.584;2023-07-28T03:20:30;19.30;99.90
22974;DHT22;11653;50.848;4.584;2023-07-28T03:22:56;19.30;99.90
22974;DHT22;11653;50.848;4.584;2023-07-28T03:25:21;19.30;99.90
22974;DHT22;11653;50.848;4.584;2023-07-28T03:27:47;19.30;99.90
22974;DHT22;11653;50.848;4.584;2023-07-28T03:30:13;19.20;99.90
22974;DHT22;11653;50.848;4.584;2023-07-28T03:32:39;19.30;99.90
22974;DHT22;11653;50.848;4.584;2023-07-28T03:35:05;19.30;99.90
22974;DHT22;11653;50.848;4.584;2023-07-28T03:37:34;19.30;99.90
22974;DHT22;11653;50.848;4.584;2023-07-28T03:40:00;19.40;99.90
22974;DHT22;11653;50.848;4.584;2023-07-28T03:42:27;19.40;99.90
22974;DHT22;11653;50.848;4.584;2023-07-28T03:44:52;19.40;99.90
22974;DHT22;11653;50.848;4.584;2023-07-28T03:47:19;19.30;99.90
22974;DHT22;11653;50.848;4.584;2023-07-28T03:49:44;19.30;99.90
22974;DHT22;11653;50.848;4.584;2023-07-28T03:52:10;19.40;99.90
22974;DHT22;11653;50.848;4.584;2023-07-28T03:54:36;19.40;99.90
22974;DHT22;11653;50.848;4.584;2023-07-28T03:57:01;19.40;99.90
22974;DHT22;11653;50.848;4.584;2023-07-28T03:59:27;19.50;99.90
22974;DHT22;11653;50.848;4.584;2023-07-28T04:01:53;19.40;99.90
22974;DHT22;11653;50.848;4.584;2023-07-28T04:04:18;19.40;99.90
22974;DHT22;11653;50.848;4.584;2023-07-28T04:06:48;19.40;99.90
22974;DHT22;11653;50.848;4.584;2023-07-28T04:09:19;19.40;99.90
22974;DHT22;11653;50.848;4.584;2023-07-28T04:11:45;19.40;99.90
22974;DHT22;11653;50.848;4.584;2023-07-28T04:14:10;19.40;99.90
22974;DHT22;11653;50.848;4.584;2023-07-28T04:16:36;19.50;99.90
22974;DHT22;11653;50.848;4.584;2023-07-28T04:19:02;19.50;99.90
22974;DHT22;11653;50.848;4.584;2023-07-28T04:21:27;19.50;99.90
22974;DHT22;11653;50.848;4.584;2023-07-28T04:23:53;19.60;99.90
22974;DHT22;11653;50.848;4.584;2023-07-28T04:26:19;19.60;99.90
22974;DHT22;11653;50.848;4.584;2023-07-28T04:28:45;19.60;99.90
22974;DHT22;11653;50.848;4.584;2023-07-28T04:31:11;19.60;99.90
22974;DHT22;11653;50.848;4.584;2023-07-28T04:33:37;19.60;99.90
22974;DHT22;11653;50.848;4.584;2023-07-28T04:36:03;19.60;99.90
22974;DHT22;11653;50.848;4.584;2023-07-28T04:38:29;19.50;99.90
22974;DHT22;11653;50.848;4.584;2023-07-28T04:40:54;19.50;99.90
22974;DHT22;11653;50.848;4.584;2023-07-28T04:43:20;19.50;99.90
22974;DHT22;11653;50.848;4.584;2023-07-28T04:45:46;19.60;99.90
22974;DHT22;11653;50.848;4.584;2023-07-28T04:48:11;19.60;99.90
22974;DHT22;11653;50.848;4.584;2023-07-28T04:50:37;19.60;99.90
22974;DHT22;11653;50.848;4.584;2023-07-28T04:53:03;19.60;99.90
22974;DHT22;11653;50.848;4.584;2023-07-28T04:55:29;19.60;99.90
22974;DHT22;11653;50.848;4.584;2023-07-28T04:57:55;19.60;99.90
22974;DHT22;11653;50.848;4.584;2023-07-28T05:00:21;19.60;99.90
22974;DHT22;11653;50.848;4.584;2023-07-28T05:02:48;19.70;99.90
22974;DHT22;11653;50.848;4.584;2023-07-28T05:05:13;19.70;99.90
22974;DHT22;11653;50.848;4.584;2023-07-28T05:07:39;19.80;99.90
22974;DHT22;11653;50.848;4.584;2023-07-28T05:10:05;19.80;99.90
22974;DHT22;11653;50.848;4.584;2023-07-28T05:12:31;19.80;99.90
22974;DHT22;11653;50.848;4.584;2023-07-28T05:14:56;19.80;99.90
22974;DHT22;11653;50.848;4.584;2023-07-28T05:17:22;19.90;99.90
22974;DHT22;11653;50.848;4.584;2023-07-28T05:19:49;19.90;99.90
22974;DHT22;11653;50.848;4.584;2023-07-28T05:22:15;20.00;99.90
22974;DHT22;11653;50.848;4.584;2023-07-28T05:24:41;20.20;99.90
22974;DHT22;11653;50.848;4.584;2023-07-28T05:27:06;20.20;99.90
22974;DHT22;11653;50.848;4.584;2023-07-28T05:29:32;20.20;99.90
22974;DHT22;11653;50.848;4.584;2023-07-28T05:31:58;20.20;99.90
22974;DHT22;11653;50.848;4.584;2023-07-28T05:34:25;20.10;99.90
22974;DHT22;11653;50.848;4.584;2023-07-28T05:36:51;20.10;99.90
22974;DHT22;11653;50.848;4.584;2023-07-28T05:39:16;20.10;99.90
22974;DHT22;11653;50.848;4.584;2023-07-28T05:41:42;20.10;99.90
22974;DHT22;11653;50.848;4.584;2023-07-28T05:44:07;20.10;99.90
22974;DHT22;11653;50.848;4.584;2023-07-28T05:46:33;20.10;99.90
22974;DHT22;11653;50.848;4.584;2023-07-28T05:48:59;20.20;99.90
22974;DHT22;11653;50.848;4.584;2023-07-28T05:51:25;20.30;99.90
22974;DHT22;11653;50.848;4.584;2023-07-28T05:53:51;20.30;99.90
22974;DHT22;11653;50.848;4.584;2023-07-28T05:56:17;20.40;99.90
22974;DHT22;11653;50.848;4.584;2023-07-28T05:58:44;20.50;99.90
22974;DHT22;11653;50.848;4.584;2023-07-28T06:01:10;20.50;99.90
22974;DHT22;11653;50.848;4.584;2023-07-28T06:03:36;20.70;99.90
22974;DHT22;11653;50.848;4.584;2023-07-28T06:06:01;20.90;99.90
22974;DHT22;11653;50.848;4.584;2023-07-28T06:08:28;21.00;99.90
22974;DHT22;11653;50.848;4.584;2023-07-28T06:10:54;21.10;99.90
22974;DHT22;11653;50.848;4.584;2023-07-28T06:13:20;21.00;99.90
22974;DHT22;11653;50.848;4.584;2023-07-28T06:15:47;21.10;99.90
22974;DHT22;11653;50.848;4.584;2023-07-28T06:18:13;21.10;99.90
22974;DHT22;11653;50.848;4.584;2023-07-28T06:20:42;21.10;99.90
22974;DHT22;11653;50.848;4.584;2023-07-28T06:23:08;21.20;99.90
22974;DHT22;11653;50.848;4.584;2023-07-28T06:25:34;21.10;99.90
22974;DHT22;11653;50.848;4.584;2023-07-28T06:27:59;21.20;99.90
22974;DHT22;11653;50.848;4.584;2023-07-28T06:30:25;21.20;99.90
22974;DHT22;11653;50.848;4.584;2023-07-28T06:32:51;21.20;99.90
22974;DHT22;11653;50.848;4.584;2023-07-28T06:35:17;21.30;99.90
22974;DHT22;11653;50.848;4.584;2023-07-28T06:37:42;21.40;99.90
22974;DHT22;11653;50.848;4.584;2023-07-28T06:40:09;21.40;99.90
22974;DHT22;11653;50.848;4.584;2023-07-28T06:42:36;21.50;99.90
22974;DHT22;11653;50.848;4.584;2023-07-28T06:45:02;21.60;99.90
22974;DHT22;11653;50.848;4.584;2023-07-28T06:47:28;21.50;99.90
22974;DHT22;11653;50.848;4.584;2023-07-28T06:49:54;21.50;99.90
22974;DHT22;11653;50.848;4.584;2023-07-28T06:52:20;21.50;99.90
22974;DHT22;11653;50.848;4.584;2023-07-28T06:54:45;21.50;99.90
22974;DHT22;11653;50.848;4.584;2023-07-28T06:57:12;21.60;99.90
22974;DHT22;11653;50.848;4.584;2023-07-28T06:59:38;21.80;99.90
22974;DHT22;11653;50.848;4.584;2023-07-28T07:02:04;21.80;99.90
22974;DHT22;11653;50.848;4.584;2023-07-28T07:04:30;21.70;99.90
22974;DHT22;11653;50.848;4.584;2023-07-28T07:06:56;21.60;99.90
22974;DHT22;11653;50.848;4.584;2023-07-28T07:09:22;21.40;99.90
22974;DHT22;11653;50.848;4.584;2023-07-28T07:11:47;21.40;99.90
22974;DHT22;11653;50.848;4.584;2023-07-28T07:14:13;21.40;99.90
22974;DHT22;11653;50.848;4.584;2023-07-28T07:16:40;21.40;99.90
22974;DHT22;11653;50.848;4.584;2023-07-28T07:19:05;21.40;99.90
22974;DHT22;11653;50.848;4.584;2023-07-28T07:21:31;21.40;99.90
22974;DHT22;11653;50.848;4.584;2023-07-28T07:23:57;21.40;99.90
22974;DHT22;11653;50.848;4.584;2023-07-28T07:26:22;21.50;99.90
22974;DHT22;11653;50.848;4.584;2023-07-28T07:28:48;21.50;99.90
22974;DHT22;11653;50.848;4.584;2023-07-28T07:31:14;21.50;99.90
22974;DHT22;11653;50.848;4.584;2023-07-28T07:33:41;21.60;99.90
22974;DHT22;11653;50.848;4.584;2023-07-28T07:36:17;21.40;99.90
22974;DHT22;11653;50.848;4.584;2023-07-28T07:38:43;21.40;99.90
22974;DHT22;11653;50.848;4.584;2023-07-28T07:41:13;21.30;99.90
22974;DHT22;11653;50.848;4.584;2023-07-28T07:43:41;21.30;99.90
22974;DHT22;11653;50.848;4.584;2023-07-28T07:46:07;21.20;99.90
22974;DHT22;11653;50.848;4.584;2023-07-28T07:48:33;21.20;99.90
22974;DHT22;11653;50.848;4.584;2023-07-28T07:51:00;21.20;99.90
22974;DHT22;11653;50.848;4.584;2023-07-28T07:53:25;21.30;99.90
22974;DHT22;11653;50.848;4.584;2023-07-28T07:55:51;21.30;99.90
22974;DHT22;11653;50.848;4.584;2023-07-28T07:58:16;21.60;99.90
22974;DHT22;11653;50.848;4.584;2023-07-28T08:00:42;21.80;99.90
22974;DHT22;11653;50.848;4.584;2023-07-28T08:03:09;22.00;99.90
22974;DHT22;11653;50.848;4.584;2023-07-28T08:05:35;22.00;99.90
22974;DHT22;11653;50.848;4.584;2023-07-28T08:08:01;22.10;99.90
22974;DHT22;11653;50.848;4.584;2023-07-28T08:10:27;22.20;99.90
22974;DHT22;11653;50.848;4.584;2023-07-28T08:12:53;22.20;99.90
22974;DHT22;11653;50.848;4.584;2023-07-28T08:15:19;22.20;99.90
22974;DHT22;11653;50.848;4.584;2023-07-28T08:17:45;22.30;99.90
22974;DHT22;11653;50.848;4.584;2023-07-28T08:20:11;22.50;99.90
22974;DHT22;11653;50.848;4.584;2023-07-28T08:22:37;22.50;99.90
22974;DHT22;11653;50.848;4.584;2023-07-28T08:25:04;22.50;99.90
22974;DHT22;11653;50.848;4.584;2023-07-28T08:27:29;22.50;99.90
22974;DHT22;11653;50.848;4.584;2023-07-28T08:29:55;22.50;99.90
22974;DHT22;11653;50.848;4.584;2023-07-28T08:32:21;22.40;99.90
22974;DHT22;11653;50.848;4.584;2023-07-28T08:34:47;22.40;99.90
22974;DHT22;11653;50.848;4.584;2023-07-28T08:37:13;22.50;99.90
22974;DHT22;11653;50.848;4.584;2023-07-28T08:39:39;22.50;99.90
22974;DHT22;11653;50.848;4.584;2023-07-28T08:42:05;22.80;99.90
22974;DHT22;11653;50.848;4.584;2023-07-28T08:44:34;22.90;99.90
22974;DHT22;11653;50.848;4.584;2023-07-28T08:47:02;23.00;99.90
22974;DHT22;11653;50.848;4.584;2023-07-28T08:49:27;23.20;99.90
22974;DHT22;11653;50.848;4.584;2023-07-28T08:52:00;23.90;99.90
22974;DHT22;11653;50.848;4.584;2023-07-28T08:54:25;24.30;99.90
22974;DHT22;11653;50.848;4.584;2023-07-28T08:56:51;24.70;99.90
22974;DHT22;11653;50.848;4.584;2023-07-28T08:59:25;24.70;99.90
22974;DHT22;11653;50.848;4.584;2023-07-28T09:01:52;24.60;99.90
22974;DHT22;11653;50.848;4.584;2023-07-28T09:04:20;24.50;99.90
22974;DHT22;11653;50.848;4.584;2023-07-28T09:06:46;24.20;99.90
22974;DHT22;11653;50.848;4.584;2023-07-28T09:09:13;24.10;99.90
22974;DHT22;11653;50.848;4.584;2023-07-28T09:11:50;24.00;99.90
22974;DHT22;11653;50.848;4.584;2023-07-28T09:14:18;24.10;99.90
22974;DHT22;11653;50.848;4.584;2023-07-28T09:16:45;24.40;99.90
22974;DHT22;11653;50.848;4.584;2023-07-28T09:19:11;24.60;99.90
22974;DHT22;11653;50.848;4.584;2023-07-28T09:21:42;24.60;99.90
22974;DHT22;11653;50.848;4.584;2023-07-28T09:24:12;24.60;99.90
22974;DHT22;11653;50.848;4.584;2023-07-28T09:26:43;24.20;99.90
22974;DHT22;11653;50.848;4.584;2023-07-28T09:29:20;24.00;99.90
22974;DHT22;11653;50.848;4.584;2023-07-28T09:31:50;23.80;99.90
22974;DHT22;11653;50.848;4.584;2023-07-28T09:34:26;23.70;99.90
22974;DHT22;11653;50.848;4.584;2023-07-28T09:36:58;23.60;99.90
22974;DHT22;11653;50.848;4.584;2023-07-28T09:39:25;23.60;99.90
22974;DHT22;11653;50.848;4.584;2023-07-28T09:41:51;23.50;99.90
22974;DHT22;11653;50.848;4.584;2023-07-28T09:44:17;23.40;99.90
22974;DHT22;11653;50.848;4.584;2023-07-28T09:46:51;23.40;99.90
22974;DHT22;11653;50.848;4.584;2023-07-28T09:51:53;23.40;99.90
22974;DHT22;11653;50.848;4.584;2023-07-28T09:54:28;23.40;99.90
22974;DHT22;11653;50.848;4.584;2023-07-28T09:56:56;23.40;99.90
22974;DHT22;11653;50.848;4.584;2023-07-28T09:59:37;23.40;99.90
22974;DHT22;11653;50.848;4.584;2023-07-28T10:02:04;23.40;99.90
22974;DHT22;11653;50.848;4.584;2023-07-28T10:04:33;23.70;99.90
22974;DHT22;11653;50.848;4.584;2023-07-28T10:07:00;24.00;99.90
22974;DHT22;11653;50.848;4.584;2023-07-28T10:09:28;24.10;99.90
22974;DHT22;11653;50.848;4.584;2023-07-28T10:11:56;24.20;99.90
22974;DHT22;11653;50.848;4.584;2023-07-28T10:14:28;24.30;99.90
22974;DHT22;11653;50.848;4.584;2023-07-28T10:16:59;24.50;99.90
22974;DHT22;11653;50.848;4.584;2023-07-28T10:19:27;24.80;99.90
22974;DHT22;11653;50.848;4.584;2023-07-28T10:22:00;25.20;99.90
22974;DHT22;11653;50.848;4.584;2023-07-28T10:25:00;25.20;99.90
22974;DHT22;11653;50.848;4.584;2023-07-28T10:27:38;25.00;99.90
22974;DHT22;11653;50.848;4.584;2023-07-28T10:30:14;24.60;99.90
22974;DHT22;11653;50.848;4.584;2023-07-28T10:32:45;24.40;99.90
22974;DHT22;11653;50.848;4.584;2023-07-28T10:37:44;24.00;99.90
22974;DHT22;11653;50.848;4.584;2023-07-28T10:40:33;24.10;99.90
22974;DHT22;11653;50.848;4.584;2023-07-28T10:43:03;24.30;99.90
22974;DHT22;11653;50.848;4.584;2023-07-28T10:45:31;24.40;99.90
22974;DHT22;11653;50.848;4.584;2023-07-28T10:47:58;24.70;99.90
22974;DHT22;11653;50.848;4.584;2023-07-28T10:50:30;25.10;99.90
22974;DHT22;11653;50.848;4.584;2023-07-28T10:52:56;25.70;99.90
22974;DHT22;11653;50.848;4.584;2023-07-28T10:55:24;26.10;99.90
22974;DHT22;11653;50.848;4.584;2023-07-28T10:57:50;26.10;99.90
22974;DHT22;11653;50.848;4.584;2023-07-28T11:00:18;26.10;99.90
22974;DHT22;11653;50.848;4.584;2023-07-28T11:02:49;26.20;99.90
22974;DHT22;11653;50.848;4.584;2023-07-28T11:05:24;26.00;99.90
22974;DHT22;11653;50.848;4.584;2023-07-28T11:07:55;26.00;99.90
22974;DHT22;11653;50.848;4.584;2023-07-28T11:10:21;26.00;99.90
22974;DHT22;11653;50.848;4.584;2023-07-28T11:12:48;25.80;99.90
22974;DHT22;11653;50.848;4.584;2023-07-28T11:15:15;25.60;99.90
22974;DHT22;11653;50.848;4.584;2023-07-28T11:17:50;25.40;99.90
22974;DHT22;11653;50.848;4.584;2023-07-28T11:20:16;25.10;99.90
22974;DHT22;11653;50.848;4.584;2023-07-28T11:22:46;25.10;99.90
22974;DHT22;11653;50.848;4.584;2023-07-28T11:25:12;24.90;99.90
22974;DHT22;11653;50.848;4.584;2023-07-28T11:27:39;24.70;99.90
22974;DHT22;11653;50.848;4.584;2023-07-28T11:30:07;24.60;99.90
22974;DHT22;11653;50.848;4.584;2023-07-28T11:32:36;24.60;99.90
22974;DHT22;11653;50.848;4.584;2023-07-28T11:35:13;24.60;99.90
22974;DHT22;11653;50.848;4.584;2023-07-28T11:37:40;24.70;99.90
22974;DHT22;11653;50.848;4.584;2023-07-28T11:40:07;24.70;99.90
22974;DHT22;11653;50.848;4.584;2023-07-28T11:42:59;24.80;99.90
22974;DHT22;11653;50.848;4.584;2023-07-28T11:45:25;24.90;99.90
22974;DHT22;11653;50.848;4.584;2023-07-28T11:47:55;25.10;99.90
22974;DHT22;11653;50.848;4.584;2023-07-28T11:50:25;25.30;99.90
22974;DHT22;11653;50.848;4.584;2023-07-28T11:52:51;25.30;99.90
22974;DHT22;11653;50.848;4.584;2023-07-28T11:55:18;25.00;99.90
22974;DHT22;11653;50.848;4.584;2023-07-28T11:57:44;24.70;99.90
22974;DHT22;11653;50.848;4.584;2023-07-28T12:00:10;24.50;99.90
22974;DHT22;11653;50.848;4.584;2023-07-28T12:02:38;24.40;99.90
22974;DHT22;11653;50.848;4.584;2023-07-28T12:05:15;24.30;99.90
22974;DHT22;11653;50.848;4.584;2023-07-28T12:07:41;24.20;99.90
22974;DHT22;11653;50.848;4.584;2023-07-28T12:10:12;24.20;99.90
22974;DHT22;11653;50.848;4.584;2023-07-28T12:12:46;24.40;99.90
22974;DHT22;11653;50.848;4.584;2023-07-28T12:15:21;24.80;99.90
22974;DHT22;11653;50.848;4.584;2023-07-28T12:18:12;25.20;99.90
22974;DHT22;11653;50.848;4.584;2023-07-28T12:20:43;25.60;99.90
22974;DHT22;11653;50.848;4.584;2023-07-28T12:23:13;26.30;99.90
22974;DHT22;11653;50.848;4.584;2023-07-28T12:25:40;26.60;99.90
22974;DHT22;11653;50.848;4.584;2023-07-28T12:28:06;27.10;99.90
22974;DHT22;11653;50.848;4.584;2023-07-28T12:30:32;27.60;99.90
22974;DHT22;11653;50.848;4.584;2023-07-28T12:32:58;27.90;99.90
22974;DHT22;11653;50.848;4.584;2023-07-28T12:35:24;28.30;99.90
22974;DHT22;11653;50.848;4.584;2023-07-28T12:37:52;28.30;99.90
22974;DHT22;11653;50.848;4.584;2023-07-28T12:40:18;28.30;99.90
22974;DHT22;11653;50.848;4.584;2023-07-28T12:42:47;27.80;99.90
22974;DHT22;11653;50.848;4.584;2023-07-28T12:45:14;27.40;99.90
22974;DHT22;11653;50.848;4.584;2023-07-28T12:47:41;26.80;99.90
22974;DHT22;11653;50.848;4.584;2023-07-28T12:50:07;26.30;99.90
22974;DHT22;11653;50.848;4.584;2023-07-28T12:52:33;26.00;99.90
22974;DHT22;11653;50.848;4.584;2023-07-28T12:54:59;25.80;99.90
22974;DHT22;11653;50.848;4.584;2023-07-28T12:57:24;25.70;99.90
22974;DHT22;11653;50.848;4.584;2023-07-28T12:59:50;25.80;99.90
22974;DHT22;11653;50.848;4.584;2023-07-28T13:02:17;26.00;99.90
22974;DHT22;11653;50.848;4.584;2023-07-28T13:04:43;26.30;99.90
22974;DHT22;11653;50.848;4.584;2023-07-28T13:07:09;26.50;99.90
22974;DHT22;11653;50.848;4.584;2023-07-28T13:09:35;26.40;99.90
22974;DHT22;11653;50.848;4.584;2023-07-28T13:12:00;26.40;99.90
22974;DHT22;11653;50.848;4.584;2023-07-28T13:14:26;26.50;99.90
22974;DHT22;11653;50.848;4.584;2023-07-28T13:16:52;26.60;99.90
22974;DHT22;11653;50.848;4.584;2023-07-28T13:19:17;26.60;99.90
22974;DHT22;11653;50.848;4.584;2023-07-28T13:21:43;26.60;99.90
22974;DHT22;11653;50.848;4.584;2023-07-28T13:24:08;26.30;99.90
22974;DHT22;11653;50.848;4.584;2023-07-28T13:26:34;26.10;99.90
22974;DHT22;11653;50.848;4.584;2023-07-28T13:29:00;26.10;99.90
22974;DHT22;11653;50.848;4.584;2023-07-28T13:31:28;26.00;99.90
22974;DHT22;11653;50.848;4.584;2023-07-28T13:33:54;26.00;99.90
22974;DHT22;11653;50.848;4.584;2023-07-28T13:36:19;25.80;99.90
22974;DHT22;11653;50.848;4.584;2023-07-28T13:38:45;25.70;99.90
22974;DHT22;11653;50.848;4.584;2023-07-28T13:41:11;25.60;99.90
22974;DHT22;11653;50.848;4.584;2023-07-28T13:43:37;25.60;99.90
22974;DHT22;11653;50.848;4.584;2023-07-28T13:46:07;25.70;99.90
22974;DHT22;11653;50.848;4.584;2023-07-28T13:48:34;25.60;99.90
22974;DHT22;11653;50.848;4.584;2023-07-28T13:51:01;25.60;99.90
22974;DHT22;11653;50.848;4.584;2023-07-28T13:53:27;25.50;99.90
22974;DHT22;11653;50.848;4.584;2023-07-28T13:55:54;25.40;99.90
22974;DHT22;11653;50.848;4.584;2023-07-28T13:58:20;25.50;99.90
22974;DHT22;11653;50.848;4.584;2023-07-28T14:00:46;25.60;99.90
22974;DHT22;11653;50.848;4.584;2023-07-28T14:03:12;25.70;99.90
22974;DHT22;11653;50.848;4.584;2023-07-28T14:05:38;26.00;99.90
22974;DHT22;11653;50.848;4.584;2023-07-28T14:08:04;26.10;99.90
22974;DHT22;11653;50.848;4.584;2023-07-28T14:10:29;26.30;99.90
22974;DHT22;11653;50.848;4.584;2023-07-28T14:12:58;26.40;99.90
22974;DHT22;11653;50.848;4.584;2023-07-28T14:15:23;26.30;99.90
22974;DHT22;11653;50.848;4.584;2023-07-28T14:17:49;26.30;99.90
22974;DHT22;11653;50.848;4.584;2023-07-28T14:20:15;26.30;99.90
22974;DHT22;11653;50.848;4.584;2023-07-28T14:22:40;26.10;99.90
22974;DHT22;11653;50.848;4.584;2023-07-28T14:25:06;26.20;99.90
22974;DHT22;11653;50.848;4.584;2023-07-28T14:27:32;26.20;99.90
22974;DHT22;11653;50.848;4.584;2023-07-28T14:29:58;26.20;99.90
22974;DHT22;11653;50.848;4.584;2023-07-28T14:32:23;26.30;99.90
22974;DHT22;11653;50.848;4.584;2023-07-28T14:34:49;26.40;99.90
22974;DHT22;11653;50.848;4.584;2023-07-28T14:37:15;26.50;99.90
22974;DHT22;11653;50.848;4.584;2023-07-28T14:39:41;26.50;99.90
22974;DHT22;11653;50.848;4.584;2023-07-28T14:42:06;26.40;99.90
22974;DHT22;11653;50.848;4.584;2023-07-28T14:44:32;26.30;99.90
22974;DHT22;11653;50.848;4.584;2023-07-28T14:46:58;26.40;99.90
22974;DHT22;11653;50.848;4.584;2023-07-28T14:49:23;26.60;99.90
22974;DHT22;11653;50.848;4.584;2023-07-28T14:51:53;26.80;99.90
22974;DHT22;11653;50.848;4.584;2023-07-28T14:54:19;26.70;99.90
22974;DHT22;11653;50.848;4.584;2023-07-28T14:56:44;26.70;99.90
22974;DHT22;11653;50.848;4.584;2023-07-28T14:59:10;26.80;99.90
22974;DHT22;11653;50.848;4.584;2023-07-28T15:01:36;26.80;99.90
22974;DHT22;11653;50.848;4.584;2023-07-28T15:04:01;26.80;99.90
22974;DHT22;11653;50.848;4.584;2023-07-28T15:06:32;26.60;99.90
22974;DHT22;11653;50.848;4.584;2023-07-28T15:08:58;26.50;99.90
22974;DHT22;11653;50.848;4.584;2023-07-28T15:11:24;26.40;99.90
22974;DHT22;11653;50.848;4.584;2023-07-28T15:13:50;26.20;99.90
22974;DHT22;11653;50.848;4.584;2023-07-28T15:16:16;26.10;99.90
22974;DHT22;11653;50.848;4.584;2023-07-28T15:18:41;26.20;99.90
22974;DHT22;11653;50.848;4.584;2023-07-28T15:21:07;26.30;99.90
22974;DHT22;11653;50.848;4.584;2023-07-28T15:23:33;26.30;99.90
22974;DHT22;11653;50.848;4.584;2023-07-28T15:25:58;26.30;99.90
22974;DHT22;11653;50.848;4.584;2023-07-28T15:28:24;26.20;99.90
22974;DHT22;11653;50.848;4.584;2023-07-28T15:30:50;26.30;99.90
22974;DHT22;11653;50.848;4.584;2023-07-28T15:33:18;26.50;99.90
22974;DHT22;11653;50.848;4.584;2023-07-28T15:35:45;26.50;99.90
22974;DHT22;11653;50.848;4.584;2023-07-28T15:38:11;26.60;99.90